• Join FlightAware (Why Join?)
  • Login
  • US Flag 
Rudolph Flight #1: Arrived! 
03:43PM EST


 

Airport Tracker/Info


-or-


 

Live Flight TrackerFlight Track Log ✈ UAL582 ✈ 10-May-2013 ✈ KORD - KATL

Flight Track Log - Related Links

Times and Time Zones

All times are in EDT time to prevent confusion due to time zone crossing. See the UAL582 flight status page for this flight to view local times or setup timezone preferences in your user account.

Time Position Orientation Groundspeed Altitude Reporting Facility
EDT Latitude Longitude Course Direction KTS MPH feet Rate Location/Type
11:18PM 41.9333 -87.9167 180° South 168 193 1,900  Level Chicago TRACON
11:19PM 41.8833 -87.9167 180° South 226 260 3,700 1,500 Climbing Chicago TRACON
11:19PM 41.8744 -87.9194 193° South 230 265 3,900 2,700 Climbing Chicago Center
11:20PM 41.7964 -87.9122 176° South 270 311 7,300 3,240 Climbing Chicago Center
11:21PM 41.7125 -87.9047 176° South 298 343 10,600 2,700 Climbing Chicago Center
11:22PM 41.6222 -87.8964 176° South 322 371 12,900 2,040 Climbing Chicago Center
11:23PM 41.5150 -87.8869 176° South 376 433 14,800 2,220 Climbing Chicago Center
11:24PM 41.4000 -87.8783 177° South 403 464 17,500 2,520 Climbing Chicago Center
11:25PM 41.2858 -87.8906 185° South 405 466 20,000 2,220 Climbing Chicago Center
11:26PM 41.1689 -87.8911 180° South 415 478 22,100 2,040 Climbing Chicago Center
11:27PM 41.0261 -87.8856 178° South 425 489 24,200 1,860 Climbing Chicago Center
11:28PM 40.9050 -87.8814 179° South 433 498 26,000 1,560 Climbing Chicago Center
11:29PM 40.7822 -87.8772 179° South 441 507 27,400 1,320 Climbing Chicago Center
11:30PM 40.6581 -87.8731 179° South 446 513 28,800 1,680 Climbing Chicago Center
11:31PM 40.5350 -87.8694 179° South 445 512 30,800 1,560 Climbing Chicago Center
11:32PM 40.4133 -87.8658 179° South 440 506 32,000 1,200 Climbing Chicago Center
11:33PM 40.3172 -87.8639 179° South 440 506 33,100 1,080 Climbing Indianapolis Center
11:34PM 40.1958 -87.8592 178° South 441 507 34,000 420 Climbing Indianapolis Center
11:35PM 40.0753 -87.8272 169° South 445 512 34,000  Level Indianapolis Center
11:36PM 39.9564 -87.7897 166° South 444 511 34,000  Level Indianapolis Center
11:37PM 39.8147 -87.7475 167° South 440 506 34,000 360 Level Indianapolis Center
11:38PM 39.6978 -87.7122 167° South 436 502 34,800 480 Climbing Indianapolis Center
11:39PM 39.5814 -87.6775 167° South 433 498 35,000 60 Climbing Indianapolis Center
11:40PM 39.4664 -87.6414 166° South 428 493 35,000  Level Indianapolis Center
11:41PM 39.3508 -87.6069 167° South 429 494 35,000  Level Indianapolis Center
11:42PM 39.2358 -87.5722 167° South 428 493 35,000  Level Indianapolis Center
11:43PM 39.1203 -87.5381 167° South 428 493 35,000  Level Indianapolis Center
11:44PM 38.9850 -87.4972 167° South 428 493 35,000  Level Indianapolis Center
11:45PM 38.8694 -87.4625 167° South 426 490 35,000  Level Indianapolis Center
11:46PM 38.7550 -87.4286 167° South 423 487 35,000  Level Indianapolis Center
11:47PM 38.6392 -87.3956 167° South 424 488 35,000  Level Indianapolis Center
11:48PM 38.5244 -87.3614 167° South 425 489 35,000  Level Indianapolis Center
11:49PM 38.4103 -87.3286 167° South 423 487 35,000  Level Indianapolis Center
11:50PM 38.2981 -87.2964 167° South 420 483 35,000  Level Indianapolis Center
11:51PM 38.1861 -87.2647 167° South 419 482 35,000  Level Indianapolis Center
11:52PM 38.0742 -87.2306 166° South 417 480 35,000  Level Indianapolis Center
11:53PM 37.9606 -87.1978 167° South 419 482 35,000  Level Indianapolis Center
11:54PM 37.8464 -87.1647 167° South 420 483 35,000  Level Indianapolis Center
11:55PM 37.7325 -87.1319 167° South 419 482 35,000  Level Indianapolis Center
11:57PM 37.5978 -87.0922 167° South 414 476 35,000  Level Indianapolis Center
11:58PM 37.4836 -87.0633 169° South 412 474 35,000  Level Indianapolis Center
11:59PM 37.3714 -87.0283 166° South 412 474 35,000  Level Indianapolis Center
12:00AM 37.2614 -86.9978 168° South 409 471 35,000  Level Memphis Center
12:01AM 37.1397 -86.9664 168° South 414 476 35,000  Level Memphis Center
12:02AM 37.0283 -86.9322 166° South 414 476 35,000  Level Memphis Center
12:03AM 36.9208 -86.8875 162° South 414 476 35,100 600 Climbing Memphis Center
12:04AM 36.8147 -86.8247 155° Southeast 421 484 36,300 900 Climbing Memphis Center
12:05AM 36.7089 -86.7619 155° Southeast 421 484 37,000 300 Climbing Memphis Center
12:06AM 36.5986 -86.6944 154° Southeast 434 499 37,000  Level Memphis Center
12:07AM 36.4861 -86.6275 154° Southeast 434 499 37,000  Level Memphis Center
12:08AM 36.3842 -86.5703 156° South 439 505 37,000  Level Memphis Center
12:09AM 36.2717 -86.5058 155° Southeast 445 512 37,000  Level Memphis Center
12:10AM 36.1572 -86.4419 156° South 445 512 37,100  Climbing Memphis Center
12:11AM 36.0319 -86.3708 155° Southeast 445 512 37,100 -60 Level Memphis Center
12:12AM 35.9194 -86.3072 155° Southeast 445 512 37,000 -60 Descending Memphis Center
12:13AM 35.7142 -86.1897 155° Southeast 452 520 37,000  Level Atlanta Center
12:14AM 35.6108 -86.1333 156° South 452 520 37,000 -480 Level Atlanta Center
12:15AM 35.5014 -86.0617 152° Southeast 452 520 36,100 -1,020 Descending Atlanta Center
12:16AM 35.3800 -85.9569 145° Southeast 475 547 35,000 -1,080 Descending Atlanta Center
12:17AM 35.2731 -85.8603 144° Southeast 486 559 34,000 -960 Descending Atlanta Center
12:18AM 35.1761 -85.7767 145° Southeast 481 554 33,100 -960 Descending Atlanta Center
12:19AM 35.0669 -85.6806 144° Southeast 481 554 32,100 -1,020 Descending Atlanta Center
12:20AM 34.9617 -85.5872 144° Southeast 481 554 31,100 -600 Descending Atlanta Center
12:21AM 34.8542 -85.4917 144° Southeast 481 554 31,000 -60 Descending Atlanta Center
12:22AM 34.7469 -85.3989 145° Southeast 481 554 31,000  Level Atlanta Center
12:23AM 34.6372 -85.3036 144° Southeast 481 554 31,000  Level Atlanta Center
12:24AM 34.5317 -85.2114 144° Southeast 481 554 31,000 -1,200 Level Atlanta Center
12:25AM 34.4261 -85.1167 143° Southeast 476 548 28,600 -2,580 Descending Atlanta Center
12:26AM 34.3183 -85.0247 145° Southeast 476 548 25,900 -2,880 Descending Atlanta Center
12:27AM 34.2083 -84.9306 145° Southeast 476 548 22,900 -2,820 Descending Atlanta Center
12:28AM 34.1025 -84.8417 145° Southeast 476 548 20,300 -2,580 Descending Atlanta Center
12:29AM 34.0072 -84.7556 143° Southeast 464 534 17,800 -2,700 Descending Atlanta Center
12:30AM 33.9117 -84.6744 145° Southeast 435 501 15,000 -2,400 Descending Atlanta Center
12:31AM 33.8181 -84.5989 146° Southeast 411 473 13,000 -1,680 Descending Atlanta Center
12:33AM 33.7333 -84.4833 131° Southeast 331 381 11,300 -1,680 Descending Atlanta TRACON
12:34AM 33.7333 -84.3833 90° East 323 372 9,300 -1,980 Descending Atlanta TRACON
12:35AM 33.7333 -84.2833 90° East 302 348 7,400 -2,100 Descending Atlanta TRACON
12:36AM 33.7000 -84.2167 121° Southeast 283 326 5,200 -1,860 Descending Atlanta TRACON
12:37AM 33.6500 -84.2667 220° Southwest 226 260 3,500 -1,380 Descending Atlanta TRACON
12:38AM 33.6500 -84.3333 270° West 157 181 2,400 -960 Descending Atlanta TRACON
12:39AM 33.6500 -84.3667 270° West 129 148 1,600 -840 Descending Atlanta TRACON
12:41AM 33.6333 -84.4167 140° Southeast  Level FlightAware Approximate
12:48AM 33.6367 -84.4279 140° Southeast  Level Estimated